sensor_id;sensor_type;location;lat;lon;timestamp;temperature;humidity
22795;DHT22;11564;50.920;11.612;2022-09-09T00:04:13;11.80;99.90
22795;DHT22;11564;50.920;11.612;2022-09-09T00:06:23;11.70;99.90
22795;DHT22;11564;50.920;11.612;2022-09-09T00:08:52;11.70;99.90
22795;DHT22;11564;50.920;11.612;2022-09-09T00:11:24;11.80;99.90
22795;DHT22;11564;50.920;11.612;2022-09-09T00:13:54;11.80;99.90
22795;DHT22;11564;50.920;11.612;2022-09-09T00:16:23;11.80;99.90
22795;DHT22;11564;50.920;11.612;2022-09-09T00:18:55;11.80;99.90
22795;DHT22;11564;50.920;11.612;2022-09-09T00:21:29;11.70;99.90
22795;DHT22;11564;50.920;11.612;2022-09-09T00:23:56;11.70;99.90
22795;DHT22;11564;50.920;11.612;2022-09-09T01:28:36;12.00;99.90
22795;DHT22;11564;50.920;11.612;2022-09-09T01:31:23;11.90;99.90
22795;DHT22;11564;50.920;11.612;2022-09-09T01:33:51;11.90;99.90
22795;DHT22;11564;50.920;11.612;2022-09-09T01:36:22;11.90;99.90
22795;DHT22;11564;50.920;11.612;2022-09-09T01:38:49;11.90;99.90
22795;DHT22;11564;50.920;11.612;2022-09-09T01:41:15;11.90;99.90
22795;DHT22;11564;50.920;11.612;2022-09-09T01:43:40;12.00;99.90
22795;DHT22;11564;50.920;11.612;2022-09-09T01:46:06;11.90;99.90
22795;DHT22;11564;50.920;11.612;2022-09-09T01:48:33;11.90;99.90
22795;DHT22;11564;50.920;11.612;2022-09-09T01:50:59;11.90;99.90
22795;DHT22;11564;50.920;11.612;2022-09-09T01:53:24;11.90;99.90
22795;DHT22;11564;50.920;11.612;2022-09-09T01:58:43;11.90;99.90
22795;DHT22;11564;50.920;11.612;2022-09-09T02:03:35;12.10;99.90
22795;DHT22;11564;50.920;11.612;2022-09-09T02:08:39;12.20;99.90
22795;DHT22;11564;50.920;11.612;2022-09-09T02:11:06;12.30;99.90
22795;DHT22;11564;50.920;11.612;2022-09-09T02:13:32;12.40;99.90
22795;DHT22;11564;50.920;11.612;2022-09-09T02:19:27;12.60;99.90
22795;DHT22;11564;50.920;11.612;2022-09-09T02:21:20;12.70;99.90
22795;DHT22;11564;50.920;11.612;2022-09-09T02:23:47;12.80;99.90
22795;DHT22;11564;50.920;11.612;2022-09-09T02:26:14;12.80;99.90
22795;DHT22;11564;50.920;11.612;2022-09-09T02:28:45;12.80;99.90
22795;DHT22;11564;50.920;11.612;2022-09-09T02:31:11;12.80;99.90
22795;DHT22;11564;50.920;11.612;2022-09-09T02:33:44;12.80;99.90
22795;DHT22;11564;50.920;11.612;2022-09-09T02:36:11;12.90;99.90
22795;DHT22;11564;50.920;11.612;2022-09-09T02:38:39;12.80;99.90
22795;DHT22;11564;50.920;11.612;2022-09-09T02:41:06;12.80;99.90
22795;DHT22;11564;50.920;11.612;2022-09-09T02:43:35;12.80;99.90
22795;DHT22;11564;50.920;11.612;2022-09-09T02:48:29;12.70;99.90
22795;DHT22;11564;50.920;11.612;2022-09-09T02:50:59;12.70;99.90
22795;DHT22;11564;50.920;11.612;2022-09-09T02:53:39;12.70;99.90
22795;DHT22;11564;50.920;11.612;2022-09-09T02:56:13;12.70;99.90
22795;DHT22;11564;50.920;11.612;2022-09-09T02:58:40;12.70;99.90
22795;DHT22;11564;50.920;11.612;2022-09-09T03:01:05;12.70;99.90
22795;DHT22;11564;50.920;11.612;2022-09-09T03:03:31;12.80;99.90
22795;DHT22;11564;50.920;11.612;2022-09-09T03:05:56;12.80;99.90
22795;DHT22;11564;50.920;11.612;2022-09-09T03:08:22;12.80;99.90
22795;DHT22;11564;50.920;11.612;2022-09-09T03:10:48;12.70;99.90
22795;DHT22;11564;50.920;11.612;2022-09-09T03:13:14;12.60;99.90
22795;DHT22;11564;50.920;11.612;2022-09-09T03:15:40;12.60;99.90
22795;DHT22;11564;50.920;11.612;2022-09-09T03:18:06;12.50;99.90
22795;DHT22;11564;50.920;11.612;2022-09-09T03:20:31;12.40;99.90
22795;DHT22;11564;50.920;11.612;2022-09-09T03:22:57;12.40;99.90
22795;DHT22;11564;50.920;11.612;2022-09-09T03:25:24;12.40;99.90
22795;DHT22;11564;50.920;11.612;2022-09-09T03:27:50;12.50;99.90
22795;DHT22;11564;50.920;11.612;2022-09-09T03:30:18;12.60;99.90
22795;DHT22;11564;50.920;11.612;2022-09-09T03:32:43;12.60;99.90
22795;DHT22;11564;50.920;11.612;2022-09-09T03:35:09;12.80;99.90
22795;DHT22;11564;50.920;11.612;2022-09-09T03:37:35;12.90;99.90
22795;DHT22;11564;50.920;11.612;2022-09-09T03:40:00;13.00;99.90
22795;DHT22;11564;50.920;11.612;2022-09-09T03:42:26;13.00;99.90
22795;DHT22;11564;50.920;11.612;2022-09-09T03:44:52;13.10;99.90
22795;DHT22;11564;50.920;11.612;2022-09-09T03:47:18;13.20;99.90
22795;DHT22;11564;50.920;11.612;2022-09-09T03:49:44;13.30;99.90
22795;DHT22;11564;50.920;11.612;2022-09-09T03:52:09;13.30;99.90
22795;DHT22;11564;50.920;11.612;2022-09-09T03:54:35;13.40;99.90
22795;DHT22;11564;50.920;11.612;2022-09-09T03:57:01;13.40;99.90
22795;DHT22;11564;50.920;11.612;2022-09-09T03:59:26;13.60;99.90
22795;DHT22;11564;50.920;11.612;2022-09-09T04:01:52;13.70;99.90
22795;DHT22;11564;50.920;11.612;2022-09-09T04:04:18;13.80;99.90
22795;DHT22;11564;50.920;11.612;2022-09-09T04:06:45;13.90;99.90
22795;DHT22;11564;50.920;11.612;2022-09-09T04:09:10;13.90;99.90
22795;DHT22;11564;50.920;11.612;2022-09-09T04:11:36;13.90;99.90
22795;DHT22;11564;50.920;11.612;2022-09-09T04:14:02;13.90;99.90
22795;DHT22;11564;50.920;11.612;2022-09-09T04:16:27;13.90;99.90
22795;DHT22;11564;50.920;11.612;2022-09-09T04:18:53;13.90;99.90
22795;DHT22;11564;50.920;11.612;2022-09-09T04:21:19;13.90;99.90
22795;DHT22;11564;50.920;11.612;2022-09-09T04:23:44;13.90;99.90
22795;DHT22;11564;50.920;11.612;2022-09-09T04:26:10;13.90;99.90
22795;DHT22;11564;50.920;11.612;2022-09-09T04:28:35;13.90;99.90
22795;DHT22;11564;50.920;11.612;2022-09-09T04:31:05;13.90;99.90
22795;DHT22;11564;50.920;11.612;2022-09-09T04:33:31;14.00;99.90
22795;DHT22;11564;50.920;11.612;2022-09-09T04:35:57;14.10;99.90
22795;DHT22;11564;50.920;11.612;2022-09-09T04:38:22;14.10;99.90
22795;DHT22;11564;50.920;11.612;2022-09-09T04:40:48;14.10;99.90
22795;DHT22;11564;50.920;11.612;2022-09-09T04:43:14;14.10;99.90
22795;DHT22;11564;50.920;11.612;2022-09-09T04:45:40;14.10;99.90
22795;DHT22;11564;50.920;11.612;2022-09-09T04:48:06;14.10;99.90
22795;DHT22;11564;50.920;11.612;2022-09-09T04:50:33;14.00;99.90
22795;DHT22;11564;50.920;11.612;2022-09-09T04:52:59;13.90;99.90
22795;DHT22;11564;50.920;11.612;2022-09-09T04:55:25;13.80;99.90
22795;DHT22;11564;50.920;11.612;2022-09-09T04:57:50;13.80;99.90
22795;DHT22;11564;50.920;11.612;2022-09-09T05:00:16;13.70;99.90
22795;DHT22;11564;50.920;11.612;2022-09-09T05:02:42;13.80;99.90
22795;DHT22;11564;50.920;11.612;2022-09-09T05:05:07;13.70;99.90
22795;DHT22;11564;50.920;11.612;2022-09-09T05:07:33;13.70;99.90
22795;DHT22;11564;50.920;11.612;2022-09-09T05:09:59;13.70;99.90
22795;DHT22;11564;50.920;11.612;2022-09-09T05:12:24;13.70;99.90
22795;DHT22;11564;50.920;11.612;2022-09-09T05:14:51;13.70;99.90
22795;DHT22;11564;50.920;11.612;2022-09-09T05:17:17;13.70;99.90
22795;DHT22;11564;50.920;11.612;2022-09-09T05:19:43;13.80;99.90
22795;DHT22;11564;50.920;11.612;2022-09-09T05:22:09;13.90;99.90
22795;DHT22;11564;50.920;11.612;2022-09-09T05:24:35;14.00;99.90
22795;DHT22;11564;50.920;11.612;2022-09-09T05:27:02;14.10;99.90
22795;DHT22;11564;50.920;11.612;2022-09-09T05:29:28;14.10;99.90
22795;DHT22;11564;50.920;11.612;2022-09-09T05:31:53;14.20;99.90
22795;DHT22;11564;50.920;11.612;2022-09-09T05:34:19;14.30;99.90
22795;DHT22;11564;50.920;11.612;2022-09-09T05:36:45;14.30;99.90
22795;DHT22;11564;50.920;11.612;2022-09-09T05:39:12;14.40;99.90
22795;DHT22;11564;50.920;11.612;2022-09-09T05:41:37;14.50;99.90
22795;DHT22;11564;50.920;11.612;2022-09-09T05:44:03;14.60;99.90
22795;DHT22;11564;50.920;11.612;2022-09-09T05:46:28;14.60;99.90
22795;DHT22;11564;50.920;11.612;2022-09-09T05:48:54;14.70;99.90
22795;DHT22;11564;50.920;11.612;2022-09-09T05:51:24;14.80;99.90
22795;DHT22;11564;50.920;11.612;2022-09-09T05:53:50;14.80;99.90
22795;DHT22;11564;50.920;11.612;2022-09-09T05:56:17;14.90;99.90
22795;DHT22;11564;50.920;11.612;2022-09-09T05:58:43;15.00;99.90
22795;DHT22;11564;50.920;11.612;2022-09-09T06:01:13;15.10;99.90
22795;DHT22;11564;50.920;11.612;2022-09-09T06:03:39;15.10;99.90
22795;DHT22;11564;50.920;11.612;2022-09-09T06:06:06;15.10;99.90
22795;DHT22;11564;50.920;11.612;2022-09-09T06:08:36;15.20;99.90
22795;DHT22;11564;50.920;11.612;2022-09-09T06:11:06;15.30;99.90
22795;DHT22;11564;50.920;11.612;2022-09-09T06:13:31;15.30;99.90
22795;DHT22;11564;50.920;11.612;2022-09-09T06:15:57;15.40;99.90
22795;DHT22;11564;50.920;11.612;2022-09-09T06:18:23;15.40;99.90
22795;DHT22;11564;50.920;11.612;2022-09-09T06:20:59;15.50;99.90
22795;DHT22;11564;50.920;11.612;2022-09-09T06:23:26;15.40;99.90
22795;DHT22;11564;50.920;11.612;2022-09-09T06:25:51;15.40;99.90
22795;DHT22;11564;50.920;11.612;2022-09-09T06:28:17;15.40;99.90
22795;DHT22;11564;50.920;11.612;2022-09-09T06:33:11;15.50;99.90
22795;DHT22;11564;50.920;11.612;2022-09-09T06:35:36;15.60;99.90
22795;DHT22;11564;50.920;11.612;2022-09-09T06:38:03;15.70;99.90
22795;DHT22;11564;50.920;11.612;2022-09-09T06:40:29;16.00;99.90
22795;DHT22;11564;50.920;11.612;2022-09-09T06:42:58;16.20;99.90
22795;DHT22;11564;50.920;11.612;2022-09-09T06:45:24;16.20;99.90
22795;DHT22;11564;50.920;11.612;2022-09-09T06:47:49;16.50;99.90
22795;DHT22;11564;50.920;11.612;2022-09-09T06:50:15;16.70;99.90
22795;DHT22;11564;50.920;11.612;2022-09-09T06:52:41;16.90;99.90
22795;DHT22;11564;50.920;11.612;2022-09-09T06:55:07;17.00;99.90
22795;DHT22;11564;50.920;11.612;2022-09-09T06:57:33;16.90;99.90
22795;DHT22;11564;50.920;11.612;2022-09-09T06:59:58;17.00;99.90
22795;DHT22;11564;50.920;11.612;2022-09-09T07:02:24;17.00;99.90
22795;DHT22;11564;50.920;11.612;2022-09-09T07:04:49;17.00;99.90
22795;DHT22;11564;50.920;11.612;2022-09-09T07:07:16;16.90;99.90
22795;DHT22;11564;50.920;11.612;2022-09-09T07:09:42;17.00;99.90
22795;DHT22;11564;50.920;11.612;2022-09-09T07:12:08;17.00;99.90
22795;DHT22;11564;50.920;11.612;2022-09-09T07:14:34;16.90;99.90
22795;DHT22;11564;50.920;11.612;2022-09-09T07:17:02;16.90;99.90
22795;DHT22;11564;50.920;11.612;2022-09-09T07:19:28;16.90;99.90
22795;DHT22;11564;50.920;11.612;2022-09-09T07:21:53;17.00;99.90
22795;DHT22;11564;50.920;11.612;2022-09-09T07:24:19;17.10;99.90
22795;DHT22;11564;50.920;11.612;2022-09-09T07:26:44;17.30;99.90
22795;DHT22;11564;50.920;11.612;2022-09-09T07:29:11;17.40;99.90
22795;DHT22;11564;50.920;11.612;2022-09-09T07:31:39;17.60;99.90
22795;DHT22;11564;50.920;11.612;2022-09-09T07:34:05;17.90;99.90
22795;DHT22;11564;50.920;11.612;2022-09-09T07:36:31;17.90;99.90
22795;DHT22;11564;50.920;11.612;2022-09-09T07:38:59;17.90;99.90
22795;DHT22;11564;50.920;11.612;2022-09-09T07:41:26;17.90;99.90
22795;DHT22;11564;50.920;11.612;2022-09-09T07:43:52;18.10;99.90
22795;DHT22;11564;50.920;11.612;2022-09-09T07:46:22;18.20;99.90
22795;DHT22;11564;50.920;11.612;2022-09-09T07:48:49;18.30;99.90
22795;DHT22;11564;50.920;11.612;2022-09-09T07:51:28;18.30;99.90
22795;DHT22;11564;50.920;11.612;2022-09-09T07:53:55;18.30;99.90
22795;DHT22;11564;50.920;11.612;2022-09-09T07:56:22;18.30;99.90
22795;DHT22;11564;50.920;11.612;2022-09-09T07:58:49;18.40;99.90
22795;DHT22;11564;50.920;11.612;2022-09-09T08:01:17;18.40;99.90
22795;DHT22;11564;50.920;11.612;2022-09-09T08:03:45;18.30;99.90
22795;DHT22;11564;50.920;11.612;2022-09-09T08:06:11;18.50;99.90
22795;DHT22;11564;50.920;11.612;2022-09-09T08:08:38;18.50;99.90
22795;DHT22;11564;50.920;11.612;2022-09-09T08:11:05;18.50;99.90
22795;DHT22;11564;50.920;11.612;2022-09-09T08:13:33;18.40;99.90
22795;DHT22;11564;50.920;11.612;2022-09-09T08:16:05;18.40;99.90
22795;DHT22;11564;50.920;11.612;2022-09-09T08:18:31;18.30;99.90
22795;DHT22;11564;50.920;11.612;2022-09-09T08:20:57;18.20;99.90
22795;DHT22;11564;50.920;11.612;2022-09-09T08:23:22;18.30;99.90
22795;DHT22;11564;50.920;11.612;2022-09-09T08:25:48;18.50;99.90
22795;DHT22;11564;50.920;11.612;2022-09-09T08:28:14;18.70;99.90
22795;DHT22;11564;50.920;11.612;2022-09-09T08:30:39;18.70;99.90
22795;DHT22;11564;50.920;11.612;2022-09-09T08:33:05;18.70;99.90
22795;DHT22;11564;50.920;11.612;2022-09-09T08:35:30;18.70;99.90
22795;DHT22;11564;50.920;11.612;2022-09-09T08:37:57;18.90;99.90
22795;DHT22;11564;50.920;11.612;2022-09-09T08:40:26;19.00;99.90
22795;DHT22;11564;50.920;11.612;2022-09-09T08:42:53;19.10;99.90
22795;DHT22;11564;50.920;11.612;2022-09-09T08:45:23;19.40;99.90
22795;DHT22;11564;50.920;11.612;2022-09-09T08:50:35;19.70;99.90
22795;DHT22;11564;50.920;11.612;2022-09-09T08:53:02;19.80;99.90
22795;DHT22;11564;50.920;11.612;2022-09-09T08:55:48;19.80;99.90
22795;DHT22;11564;50.920;11.612;2022-09-09T09:00:44;20.30;99.90
22795;DHT22;11564;50.920;11.612;2022-09-09T09:08:33;20.50;99.90
22795;DHT22;11564;50.920;11.612;2022-09-09T09:11:03;20.50;99.90
22795;DHT22;11564;50.920;11.612;2022-09-09T09:13:39;20.70;99.90
22795;DHT22;11564;50.920;11.612;2022-09-09T09:18:50;21.00;99.90
22795;DHT22;11564;50.920;11.612;2022-09-09T09:21:39;21.50;99.90
22795;DHT22;11564;50.920;11.612;2022-09-09T09:24:02;22.00;99.90
22795;DHT22;11564;50.920;11.612;2022-09-09T09:26:31;22.40;99.90
22795;DHT22;11564;50.920;11.612;2022-09-09T09:28:58;22.50;99.90
22795;DHT22;11564;50.920;11.612;2022-09-09T09:31:24;22.20;99.90
22795;DHT22;11564;50.920;11.612;2022-09-09T09:36:18;22.10;99.90
22795;DHT22;11564;50.920;11.612;2022-09-09T09:38:55;22.60;99.90
22795;DHT22;11564;50.920;11.612;2022-09-09T09:41:34;22.60;99.90
22795;DHT22;11564;50.920;11.612;2022-09-09T09:44:00;22.70;99.90
22795;DHT22;11564;50.920;11.612;2022-09-09T09:46:27;22.60;99.90
22795;DHT22;11564;50.920;11.612;2022-09-09T09:48:56;22.80;99.90
22795;DHT22;11564;50.920;11.612;2022-09-09T09:51:22;23.00;99.90
22795;DHT22;11564;50.920;11.612;2022-09-09T09:53:48;22.40;99.90
22795;DHT22;11564;50.920;11.612;2022-09-09T09:56:14;22.10;99.90
22795;DHT22;11564;50.920;11.612;2022-09-09T10:03:55;21.40;99.90
22795;DHT22;11564;50.920;11.612;2022-09-09T10:06:37;21.20;99.90
22795;DHT22;11564;50.920;11.612;2022-09-09T10:09:20;21.00;99.90
22795;DHT22;11564;50.920;11.612;2022-09-09T10:14:21;21.00;99.90
22795;DHT22;11564;50.920;11.612;2022-09-09T10:19:33;21.20;99.90
22795;DHT22;11564;50.920;11.612;2022-09-09T10:22:03;21.50;99.90
22795;DHT22;11564;50.920;11.612;2022-09-09T10:37:49;22.20;99.90
22795;DHT22;11564;50.920;11.612;2022-09-09T10:42:47;22.60;99.90
22795;DHT22;11564;50.920;11.612;2022-09-09T10:48:24;22.00;99.90
22795;DHT22;11564;50.920;11.612;2022-09-09T10:50:37;22.10;99.90
22795;DHT22;11564;50.920;11.612;2022-09-09T10:53:12;22.70;99.90
22795;DHT22;11564;50.920;11.612;2022-09-09T10:55:44;23.00;99.50
22795;DHT22;11564;50.920;11.612;2022-09-09T11:01:07;22.70;99.90
22795;DHT22;11564;50.920;11.612;2022-09-09T11:03:35;23.00;98.70
22795;DHT22;11564;50.920;11.612;2022-09-09T11:06:06;23.40;99.70
22795;DHT22;11564;50.920;11.612;2022-09-09T11:08:36;23.30;98.30
22795;DHT22;11564;50.920;11.612;2022-09-09T11:11:04;23.20;97.00
22795;DHT22;11564;50.920;11.612;2022-09-09T11:18:39;22.90;96.90
22795;DHT22;11564;50.920;11.612;2022-09-09T11:21:08;22.80;97.00
22795;DHT22;11564;50.920;11.612;2022-09-09T11:23:46;23.00;97.70
22795;DHT22;11564;50.920;11.612;2022-09-09T11:26:16;23.20;96.80
22795;DHT22;11564;50.920;11.612;2022-09-09T11:28:51;23.20;96.00
22795;DHT22;11564;50.920;11.612;2022-09-09T11:31:56;23.30;96.50
22795;DHT22;11564;50.920;11.612;2022-09-09T11:37:02;23.40;94.60
22795;DHT22;11564;50.920;11.612;2022-09-09T11:39:47;23.90;95.50
22795;DHT22;11564;50.920;11.612;2022-09-09T11:42:17;23.90;93.30
22795;DHT22;11564;50.920;11.612;2022-09-09T11:44:43;23.70;93.10
22795;DHT22;11564;50.920;11.612;2022-09-09T11:47:20;23.80;93.70
22795;DHT22;11564;50.920;11.612;2022-09-09T11:49:48;23.80;93.80
22795;DHT22;11564;50.920;11.612;2022-09-09T11:54:48;23.80;92.70
22795;DHT22;11564;50.920;11.612;2022-09-09T11:57:23;23.90;92.20
22795;DHT22;11564;50.920;11.612;2022-09-09T11:59:50;23.80;91.90
22795;DHT22;11564;50.920;11.612;2022-09-09T12:02:23;23.30;92.40
22795;DHT22;11564;50.920;11.612;2022-09-09T12:07:23;23.30;94.20
22795;DHT22;11564;50.920;11.612;2022-09-09T12:09:56;23.00;93.60
22795;DHT22;11564;50.920;11.612;2022-09-09T12:17:20;22.30;93.20
22795;DHT22;11564;50.920;11.612;2022-09-09T12:19:48;22.20;92.90
22795;DHT22;11564;50.920;11.612;2022-09-09T12:24:47;21.90;91.40
22795;DHT22;11564;50.920;11.612;2022-09-09T12:28:19;22.00;91.80
22795;DHT22;11564;50.920;11.612;2022-09-09T12:30:16;22.10;90.40
22795;DHT22;11564;50.920;11.612;2022-09-09T12:32:42;21.90;88.40
22795;DHT22;11564;50.920;11.612;2022-09-09T12:35:22;21.80;88.20
22795;DHT22;11564;50.920;11.612;2022-09-09T12:37:55;21.80;86.20
22795;DHT22;11564;50.920;11.612;2022-09-09T12:40:25;21.70;86.50
22795;DHT22;11564;50.920;11.612;2022-09-09T12:42:51;22.00;87.40
22795;DHT22;11564;50.920;11.612;2022-09-09T12:45:18;22.30;87.90
22795;DHT22;11564;50.920;11.612;2022-09-09T12:50:22;22.10;89.50
22795;DHT22;11564;50.920;11.612;2022-09-09T12:52:51;21.90;90.30
22795;DHT22;11564;50.920;11.612;2022-09-09T12:55:21;21.90;91.00
22795;DHT22;11564;50.920;11.612;2022-09-09T12:57:47;21.90;91.70
22795;DHT22;11564;50.920;11.612;2022-09-09T13:00:16;22.00;91.10
22795;DHT22;11564;50.920;11.612;2022-09-09T13:02:49;22.70;90.30
22795;DHT22;11564;50.920;11.612;2022-09-09T13:05:16;22.90;90.50
22795;DHT22;11564;50.920;11.612;2022-09-09T13:07:43;22.80;91.50
22795;DHT22;11564;50.920;11.612;2022-09-09T13:10:11;22.60;91.90
22795;DHT22;11564;50.920;11.612;2022-09-09T13:12:37;22.70;91.90
22795;DHT22;11564;50.920;11.612;2022-09-09T13:15:03;22.60;92.60
22795;DHT22;11564;50.920;11.612;2022-09-09T13:17:29;22.30;93.10
22795;DHT22;11564;50.920;11.612;2022-09-09T13:19:54;22.30;93.00
22795;DHT22;11564;50.920;11.612;2022-09-09T13:22:37;22.00;92.90
22795;DHT22;11564;50.920;11.612;2022-09-09T13:25:05;21.80;93.20
22795;DHT22;11564;50.920;11.612;2022-09-09T13:29:56;21.60;94.00
22795;DHT22;11564;50.920;11.612;2022-09-09T13:32:22;21.70;94.20
22795;DHT22;11564;50.920;11.612;2022-09-09T13:34:52;21.50;93.80
22795;DHT22;11564;50.920;11.612;2022-09-09T13:39:53;21.50;93.40
22795;DHT22;11564;50.920;11.612;2022-09-09T13:42:24;21.30;92.90
22795;DHT22;11564;50.920;11.612;2022-09-09T13:44:50;21.20;92.60
22795;DHT22;11564;50.920;11.612;2022-09-09T13:47:20;21.30;92.30
22795;DHT22;11564;50.920;11.612;2022-09-09T13:49:46;21.20;92.20
22795;DHT22;11564;50.920;11.612;2022-09-09T13:52:13;21.30;92.40
22795;DHT22;11564;50.920;11.612;2022-09-09T13:54:39;21.40;92.50
22795;DHT22;11564;50.920;11.612;2022-09-09T13:57:05;21.70;92.30
22795;DHT22;11564;50.920;11.612;2022-09-09T13:59:30;26.10;89.30
22795;DHT22;11564;50.920;11.612;2022-09-09T14:01:57;30.70;76.00
22795;DHT22;11564;50.920;11.612;2022-09-09T14:04:22;32.50;64.90
22795;DHT22;11564;50.920;11.612;2022-09-09T14:06:49;35.10;58.70
22795;DHT22;11564;50.920;11.612;2022-09-09T14:09:15;36.40;55.70
22795;DHT22;11564;50.920;11.612;2022-09-09T14:11:41;37.50;51.50
22795;DHT22;11564;50.920;11.612;2022-09-09T14:14:07;38.40;50.80
22795;DHT22;11564;50.920;11.612;2022-09-09T14:16:33;40.80;46.10
22795;DHT22;11564;50.920;11.612;2022-09-09T14:18:58;41.60;43.90
22795;DHT22;11564;50.920;11.612;2022-09-09T14:21:24;42.80;42.20
22795;DHT22;11564;50.920;11.612;2022-09-09T14:23:50;44.00;41.30
22795;DHT22;11564;50.920;11.612;2022-09-09T14:26:15;43.10;39.80
22795;DHT22;11564;50.920;11.612;2022-09-09T14:28:41;43.30;38.60
22795;DHT22;11564;50.920;11.612;2022-09-09T14:31:06;44.80;37.20
22795;DHT22;11564;50.920;11.612;2022-09-09T14:33:32;42.60;38.80
22795;DHT22;11564;50.920;11.612;2022-09-09T14:35:59;42.00;38.90
22795;DHT22;11564;50.920;11.612;2022-09-09T14:38:25;42.20;39.60
22795;DHT22;11564;50.920;11.612;2022-09-09T14:40:51;42.60;37.50
22795;DHT22;11564;50.920;11.612;2022-09-09T14:43:16;43.70;37.60
22795;DHT22;11564;50.920;11.612;2022-09-09T14:45:41;42.70;35.80
22795;DHT22;11564;50.920;11.612;2022-09-09T14:48:08;39.90;36.90
22795;DHT22;11564;50.920;11.612;2022-09-09T14:50:34;40.00;37.10
22795;DHT22;11564;50.920;11.612;2022-09-09T14:53:01;39.50;37.10
22795;DHT22;11564;50.920;11.612;2022-09-09T14:55:27;40.40;38.60
22795;DHT22;11564;50.920;11.612;2022-09-09T14:57:54;42.10;37.30
22795;DHT22;11564;50.920;11.612;2022-09-09T15:00:19;42.80;35.80
22795;DHT22;11564;50.920;11.612;2022-09-09T15:02:45;43.00;37.00
22795;DHT22;11564;50.920;11.612;2022-09-09T15:05:10;43.70;35.10
22795;DHT22;11564;50.920;11.612;2022-09-09T15:07:36;44.70;34.50
22795;DHT22;11564;50.920;11.612;2022-09-09T15:10:02;43.30;35.00
22795;DHT22;11564;50.920;11.612;2022-09-09T15:12:28;43.30;34.70
22795;DHT22;11564;50.920;11.612;2022-09-09T15:14:53;42.80;36.90
22795;DHT22;11564;50.920;11.612;2022-09-09T15:17:20;41.10;36.80
22795;DHT22;11564;50.920;11.612;2022-09-09T15:19:45;43.00;37.60
22795;DHT22;11564;50.920;11.612;2022-09-09T15:22:11;44.80;35.60
22795;DHT22;11564;50.920;11.612;2022-09-09T15:24:36;45.30;34.80
22795;DHT22;11564;50.920;11.612;2022-09-09T15:27:02;42.30;35.50
22795;DHT22;11564;50.920;11.612;2022-09-09T15:29:28;37.80;38.80
22795;DHT22;11564;50.920;11.612;2022-09-09T15:31:53;35.20;43.20
22795;DHT22;11564;50.920;11.612;2022-09-09T15:34:19;33.10;46.50
22795;DHT22;11564;50.920;11.612;2022-09-09T15:36:45;31.70;48.40
22795;DHT22;11564;50.920;11.612;2022-09-09T15:39:17;32.00;50.30
22795;DHT22;11564;50.920;11.612;2022-09-09T15:41:46;34.00;47.70
22795;DHT22;11564;50.920;11.612;2022-09-09T15:44:13;33.90;46.30
22795;DHT22;11564;50.920;11.612;2022-09-09T15:46:39;33.80;47.70
22795;DHT22;11564;50.920;11.612;2022-09-09T15:49:10;34.70;47.20
22795;DHT22;11564;50.920;11.612;2022-09-09T15:51:36;34.90;46.50
22795;DHT22;11564;50.920;11.612;2022-09-09T15:54:05;34.80;46.10
22795;DHT22;11564;50.920;11.612;2022-09-09T15:56:30;34.10;45.80
22795;DHT22;11564;50.920;11.612;2022-09-09T15:58:56;33.60;46.30
22795;DHT22;11564;50.920;11.612;2022-09-09T16:01:22;32.10;49.40
22795;DHT22;11564;50.920;11.612;2022-09-09T16:03:48;30.90;50.60
22795;DHT22;11564;50.920;11.612;2022-09-09T16:06:16;30.10;53.40
22795;DHT22;11564;50.920;11.612;2022-09-09T16:08:42;29.80;53.10
22795;DHT22;11564;50.920;11.612;2022-09-09T16:11:09;29.20;54.00
22795;DHT22;11564;50.920;11.612;2022-09-09T16:13:35;28.20;56.70
22795;DHT22;11564;50.920;11.612;2022-09-09T16:16:01;27.50;58.70
22795;DHT22;11564;50.920;11.612;2022-09-09T16:18:32;26.70;59.90
22795;DHT22;11564;50.920;11.612;2022-09-09T16:20:58;26.30;60.80
22795;DHT22;11564;50.920;11.612;2022-09-09T16:23:23;25.70;61.90
22795;DHT22;11564;50.920;11.612;2022-09-09T16:25:56;25.30;63.80
22795;DHT22;11564;50.920;11.612;2022-09-09T16:28:21;24.80;64.50
22795;DHT22;11564;50.920;11.612;2022-09-09T16:30:47;24.40;64.10
22795;DHT22;11564;50.920;11.612;2022-09-09T16:33:13;24.20;66.00
22795;DHT22;11564;50.920;11.612;2022-09-09T16:35:40;24.10;66.10
22795;DHT22;11564;50.920;11.612;2022-09-09T16:38:05;23.90;67.20
22795;DHT22;11564;50.920;11.612;2022-09-09T16:40:35;23.30;67.30
22795;DHT22;11564;50.920;11.612;2022-09-09T16:43:02;23.20;67.40
22795;DHT22;11564;50.920;11.612;2022-09-09T16:45:27;23.10;70.70
22795;DHT22;11564;50.920;11.612;2022-09-09T16:47:53;23.00;70.60
22795;DHT22;11564;50.920;11.612;2022-09-09T16:50:19;22.60;71.60
22795;DHT22;11564;50.920;11.612;2022-09-09T16:52:45;22.70;76.80
22795;DHT22;11564;50.920;11.612;2022-09-09T16:55:10;22.30;78.50
22795;DHT22;11564;50.920;11.612;2022-09-09T16:57:35;22.00;79.50
22795;DHT22;11564;50.920;11.612;2022-09-09T17:00:02;21.70;81.20
22795;DHT22;11564;50.920;11.612;2022-09-09T17:02:30;21.50;82.50
22795;DHT22;11564;50.920;11.612;2022-09-09T17:04:55;21.30;84.10
22795;DHT22;11564;50.920;11.612;2022-09-09T17:07:21;21.00;85.20
22795;DHT22;11564;50.920;11.612;2022-09-09T17:09:48;20.90;86.10
22795;DHT22;11564;50.920;11.612;2022-09-09T17:12:13;20.50;88.80
22795;DHT22;11564;50.920;11.612;2022-09-09T17:14:39;20.30;90.20
22795;DHT22;11564;50.920;11.612;2022-09-09T17:17:04;20.20;91.10
22795;DHT22;11564;50.920;11.612;2022-09-09T17:19:30;20.00;91.90
22795;DHT22;11564;50.920;11.612;2022-09-09T17:21:55;19.70;91.60
22795;DHT22;11564;50.920;11.612;2022-09-09T17:24:24;19.50;92.90
22795;DHT22;11564;50.920;11.612;2022-09-09T17:26:51;19.30;93.80
22795;DHT22;11564;50.920;11.612;2022-09-09T17:29:16;19.10;94.90
22795;DHT22;11564;50.920;11.612;2022-09-09T17:31:42;18.90;96.00
22795;DHT22;11564;50.920;11.612;2022-09-09T17:34:08;18.70;97.00
22795;DHT22;11564;50.920;11.612;2022-09-09T17:36:34;18.40;97.90
22795;DHT22;11564;50.920;11.612;2022-09-09T17:38:59;18.20;98.80
22795;DHT22;11564;50.920;11.612;2022-09-09T17:41:27;18.10;99.40
22795;DHT22;11564;50.920;11.612;2022-09-09T17:43:53;18.00;99.90
22795;DHT22;11564;50.920;11.612;2022-09-09T17:46:20;17.70;99.90
22795;DHT22;11564;50.920;11.612;2022-09-09T17:48:46;17.70;99.90
22795;DHT22;11564;50.920;11.612;2022-09-09T17:51:13;17.40;99.90
22795;DHT22;11564;50.920;11.612;2022-09-09T17:53:40;17.30;99.90